Time;durP1;ratioP1;P1;durP2;ratioP2;P2;SDS_P1;SDS_P2;PMS_P1;PMS_P2;Temp;Humidity;BMP_temperature;BMP_pressure;BME280_temperature;BME280_humidity;BME280_pressure;Samples;Min_cycle;Max_cycle;Signal;HPM_P1;HPM_P2
2022/03/11 00:01:31;;;;;;;0.60;0.60;;;2.40;89.30;;;;;;4438580;32;20556;-64
2022/03/11 00:03:57;;;;;;;0.57;0.57;;;2.30;89.60;;;;;;4442075;32;20064;-64
2022/03/11 00:06:23;;;;;;;1.75;0.62;;;2.30;89.70;;;;;;4442730;32;20073;-65
2022/03/11 00:08:49;;;;;;;0.50;0.50;;;2.30;89.40;;;;;;4416331;32;20464;-65
2022/03/11 00:11:16;;;;;;;0.82;0.82;;;2.40;89.50;;;;;;4441083;32;20119;-64
2022/03/11 00:13:42;;;;;;;1.27;1.17;;;2.40;89.00;;;;;;4441540;32;20081;-64
2022/03/11 00:16:07;;;;;;;1.75;1.15;;;2.30;89.40;;;;;;4444114;32;20168;-64
2022/03/11 00:18:33;;;;;;;1.85;1.30;;;2.40;89.20;;;;;;4442220;32;20149;-64
2022/03/11 00:20:58;;;;;;;3.30;1.25;;;2.30;89.20;;;;;;4441112;32;20069;-64
2022/03/11 00:23:24;;;;;;;0.70;0.70;;;2.30;89.20;;;;;;4442028;32;20146;-64
2022/03/11 00:25:49;;;;;;;0.90;0.90;;;2.30;89.70;;;;;;4438678;32;20403;-65
2022/03/11 00:28:15;;;;;;;1.12;0.98;;;2.30;89.80;;;;;;4441355;32;20066;-64
2022/03/11 00:30:41;;;;;;;2.17;1.05;;;2.30;89.30;;;;;;4441522;32;20549;-64
2022/03/11 00:33:07;;;;;;;0.60;0.60;;;2.10;89.30;;;;;;4442449;32;20512;-65
2022/03/11 00:35:34;;;;;;;3.03;1.25;;;2.10;90.00;;;;;;4440919;32;20131;-65
2022/03/11 00:37:59;;;;;;;0.50;0.50;;;2.20;90.00;;;;;;4440273;32;20061;-65
2022/03/11 00:40:25;;;;;;;0.73;0.70;;;2.20;89.30;;;;;;4441927;32;20081;-65
2022/03/11 00:42:51;;;;;;;0.77;0.77;;;2.20;89.30;;;;;;4442153;32;20092;-64
2022/03/11 00:45:16;;;;;;;0.70;0.70;;;2.20;89.50;;;;;;4441237;32;20527;-64
2022/03/11 00:47:42;;;;;;;1.37;1.25;;;2.10;89.70;;;;;;4442074;32;20099;-64
2022/03/11 00:50:08;;;;;;;2.25;1.77;;;2.10;89.80;;;;;;4441825;32;20085;-64
2022/03/11 00:52:33;;;;;;;0.68;0.68;;;1.90;90.10;;;;;;4441251;32;20473;-64
2022/03/11 00:54:59;;;;;;;0.70;0.70;;;2.00;90.20;;;;;;4440808;32;20175;-64
2022/03/11 00:57:24;;;;;;;0.85;0.62;;;1.90;90.10;;;;;;4441703;32;20476;-64
2022/03/11 00:59:50;;;;;;;0.47;0.47;;;1.90;90.10;;;;;;4438117;32;20093;-65
2022/03/11 01:02:16;;;;;;;0.95;0.95;;;2.00;90.00;;;;;;4440415;32;20423;-65
2022/03/11 01:04:41;;;;;;;0.73;0.73;;;1.90;89.80;;;;;;4440241;32;20076;-65
2022/03/11 01:07:07;;;;;;;5.82;1.50;;;1.90;90.30;;;;;;4443062;32;20057;-65
2022/03/11 01:09:32;;;;;;;0.60;0.60;;;1.80;90.20;;;;;;4440543;32;20065;-65
2022/03/11 01:11:58;;;;;;;1.62;1.30;;;1.90;90.20;;;;;;4442898;32;20177;-65
2022/03/11 01:14:23;;;;;;;2.03;1.42;;;1.90;90.10;;;;;;4440030;32;20125;-65
2022/03/11 01:16:49;;;;;;;2.03;1.30;;;1.90;89.80;;;;;;4441509;32;20138;-65
2022/03/11 01:19:14;;;;;;;0.80;0.80;;;1.90;89.70;;;;;;4428002;32;20081;-65
2022/03/11 01:21:40;;;;;;;0.82;0.82;;;1.80;90.10;;;;;;4441285;32;20074;-65
2022/03/11 01:24:06;;;;;;;1.40;1.20;;;1.80;90.00;;;;;;4441753;32;20133;-65
2022/03/11 01:26:31;;;;;;;1.33;1.23;;;1.80;90.10;;;;;;4427566;32;20140;-65
2022/03/11 01:28:56;;;;;;;1.83;1.05;;;1.80;89.40;;;;;;4441367;32;20068;-65
2022/03/11 01:31:22;;;;;;;2.22;1.50;;;1.90;89.80;;;;;;4441294;32;20135;-65
2022/03/11 01:33:47;;;;;;;0.62;0.62;;;1.90;89.50;;;;;;4440070;32;20520;-65
2022/03/11 01:36:14;;;;;;;0.62;0.62;;;1.90;89.60;;;;;;4439597;32;20082;-65
2022/03/11 01:38:40;;;;;;;1.83;1.30;;;1.90;89.40;;;;;;4416969;32;20081;-65
2022/03/11 01:41:06;;;;;;;0.60;0.60;;;1.90;89.60;;;;;;4426783;32;20065;-65
2022/03/11 01:43:51;;;;;;;2.08;1.75;;;1.70;89.70;;;;;;4440093;32;20134;-65
2022/03/11 01:46:16;;;;;;;0.60;0.60;;;1.60;90.20;;;;;;4438806;32;20069;-65
2022/03/11 01:48:42;;;;;;;0.70;0.70;;;1.50;90.40;;;;;;4441221;32;20128;-65
2022/03/11 01:51:07;;;;;;;2.72;1.08;;;1.60;90.10;;;;;;4442834;32;20060;-65
2022/03/11 01:53:33;;;;;;;0.80;0.80;;;1.60;90.10;;;;;;4441539;32;20473;-65
2022/03/11 01:55:58;;;;;;;3.33;1.58;;;1.70;90.00;;;;;;4439968;32;20074;-65
2022/03/11 01:58:26;;;;;;;0.75;0.75;;;1.50;90.40;;;;;;4439424;32;20528;-65
2022/03/11 02:00:51;;;;;;;0.77;0.77;;;1.40;90.40;;;;;;4439395;32;20555;-65
2022/03/11 02:03:17;;;;;;;0.73;0.73;;;1.60;90.20;;;;;;4439714;32;20064;-65
2022/03/11 02:05:43;;;;;;;0.65;0.65;;;1.60;90.30;;;;;;4440553;32;20427;-65
2022/03/11 02:08:09;;;;;;;0.50;0.50;;;1.50;90.30;;;;;;4438906;32;20069;-65
2022/03/11 02:10:35;;;;;;;1.00;0.90;;;1.50;90.40;;;;;;4440548;32;20060;-65
2022/03/11 02:13:05;;;;;;;1.05;1.00;;;1.40;90.40;;;;;;4439879;32;20076;-65
2022/03/11 02:15:31;;;;;;;0.77;0.55;;;1.40;90.60;;;;;;4439182;32;20529;-64
2022/03/11 02:17:56;;;;;;;1.30;1.23;;;1.40;90.50;;;;;;4440240;32;20069;-65
2022/03/11 02:20:22;;;;;;;0.52;0.52;;;1.40;90.40;;;;;;4444335;32;20733;-65
2022/03/11 02:22:51;;;;;;;1.30;1.08;;;1.30;90.70;;;;;;4443272;32;20104;-65
2022/03/11 02:25:17;;;;;;;0.82;0.82;;;1.30;90.60;;;;;;4427853;32;20559;-65
2022/03/11 02:27:43;;;;;;;0.70;0.70;;;1.20;90.70;;;;;;4425977;32;20072;-65
2022/03/11 02:30:18;;;;;;;6.18;3.25;;;1.30;90.70;;;;;;4442336;32;20624;-65
2022/03/11 02:32:44;;;;;;;1.60;1.35;;;1.30;90.50;;;;;;4426726;32;21346;-65
2022/03/11 02:35:11;;;;;;;1.33;1.23;;;1.20;90.70;;;;;;4426868;32;20076;-65
2022/03/11 02:37:36;;;;;;;2.42;1.35;;;1.30;90.80;;;;;;4441605;32;20431;-65
2022/03/11 02:40:03;;;;;;;3.47;1.80;;;1.20;90.90;;;;;;4439469;32;20061;-65
2022/03/11 02:42:29;;;;;;;0.80;0.80;;;1.20;90.90;;;;;;4426840;32;20073;-65
2022/03/11 02:44:54;;;;;;;1.23;0.88;;;1.20;91.00;;;;;;4426061;32;20430;-65
2022/03/11 02:47:20;;;;;;;0.40;0.40;;;1.20;91.10;;;;;;4426429;32;20069;-65
2022/03/11 02:49:45;;;;;;;0.70;0.70;;;1.10;91.30;;;;;;4441429;32;20449;-65
2022/03/11 02:52:11;;;;;;;0.73;0.55;;;1.00;91.30;;;;;;4440318;32;20615;-65
2022/03/11 02:54:36;;;;;;;1.65;0.95;;;1.10;91.40;;;;;;4440338;32;20057;-65
2022/03/11 02:57:02;;;;;;;0.80;0.73;;;1.10;91.20;;;;;;4441984;32;20068;-65
2022/03/11 02:59:27;;;;;;;1.00;1.00;;;1.10;91.10;;;;;;4443916;32;20167;-65
2022/03/11 03:01:53;;;;;;;8.02;2.05;;;1.10;91.30;;;;;;4443020;32;20090;-65
2022/03/11 03:04:18;;;;;;;1.10;0.73;;;1.00;91.30;;;;;;4442996;32;20065;-65
2022/03/11 03:06:44;;;;;;;0.62;0.55;;;1.10;91.30;;;;;;4440775;32;20061;-65
2022/03/11 03:09:10;;;;;;;2.70;1.58;;;1.10;91.30;;;;;;4439304;32;20085;-65
2022/03/11 03:11:35;;;;;;;1.00;1.00;;;1.00;91.30;;;;;;4428548;32;20509;-65
2022/03/11 03:14:01;;;;;;;1.33;1.12;;;1.00;91.30;;;;;;4438576;32;20069;-65
2022/03/11 03:16:27;;;;;;;1.25;1.15;;;1.00;91.40;;;;;;4438834;32;20072;-65
2022/03/11 03:18:52;;;;;;;1.37;1.05;;;0.90;91.60;;;;;;4441074;32;20127;-65
2022/03/11 03:21:18;;;;;;;0.80;0.80;;;0.90;91.60;;;;;;4441611;32;20053;-65
2022/03/11 03:23:43;;;;;;;0.60;0.60;;;1.00;91.70;;;;;;4442001;32;20533;-65
2022/03/11 03:26:09;;;;;;;0.70;0.70;;;0.90;91.60;;;;;;4440360;32;20057;-65
2022/03/11 03:28:34;;;;;;;0.50;0.50;;;0.80;91.70;;;;;;4428869;32;20154;-65
2022/03/11 03:30:59;;;;;;;0.60;0.60;;;0.80;91.80;;;;;;4439008;32;20069;-65
2022/03/11 03:33:25;;;;;;;0.95;0.95;;;0.80;91.90;;;;;;4440313;32;20062;-65
2022/03/11 03:35:50;;;;;;;0.77;0.77;;;0.80;92.00;;;;;;4440158;32;20072;-65
2022/03/11 03:38:16;;;;;;;0.95;0.95;;;0.90;91.60;;;;;;4441491;32;20086;-65
2022/03/11 03:40:41;;;;;;;0.55;0.55;;;1.00;91.40;;;;;;4441792;32;20423;-65
2022/03/11 03:43:07;;;;;;;0.40;0.40;;;1.00;91.50;;;;;;4440934;32;20128;-65
2022/03/11 03:45:32;;;;;;;1.20;1.15;;;0.90;91.70;;;;;;4437454;32;20061;-64
2022/03/11 03:48:00;;;;;;;1.10;1.00;;;0.70;91.60;;;;;;4443572;32;20104;-65
2022/03/11 03:50:26;;;;;;;2.75;1.33;;;0.70;91.80;;;;;;4440478;32;20461;-65
2022/03/11 03:52:51;;;;;;;0.90;0.82;;;0.70;92.00;;;;;;4439410;32;20061;-65
2022/03/11 03:55:17;;;;;;;1.10;0.68;;;0.70;92.10;;;;;;4438409;32;20097;-65
2022/03/11 03:57:42;;;;;;;2.58;0.85;;;0.60;92.10;;;;;;4439020;32;20484;-65
2022/03/11 04:00:08;;;;;;;1.17;1.12;;;0.70;92.60;;;;;;4439299;32;20365;-65
2022/03/11 04:02:36;;;;;;;0.93;0.93;;;0.70;92.10;;;;;;4411545;32;20111;-65
2022/03/11 04:05:03;;;;;;;0.50;0.50;;;0.60;92.20;;;;;;4438790;32;20061;-65
2022/03/11 04:07:29;;;;;;;0.60;0.60;;;0.70;92.00;;;;;;4439754;32;20076;-65
2022/03/11 04:09:54;;;;;;;0.68;0.68;;;0.70;91.80;;;;;;4440754;32;20467;-65
2022/03/11 04:12:19;;;;;;;3.75;1.85;;;0.70;92.00;;;;;;4439441;32;20123;-65
2022/03/11 04:14:45;;;;;;;0.50;0.50;;;0.70;91.80;;;;;;4439471;32;20080;-65
2022/03/11 04:17:10;;;;;;;8.00;1.52;;;0.80;91.90;;;;;;4440404;32;20061;-65
2022/03/11 04:19:36;;;;;;;0.52;0.47;;;0.70;91.90;;;;;;4439148;32;20540;-65
2022/03/11 04:22:02;;;;;;;1.12;1.08;;;0.50;92.00;;;;;;4426591;32;20400;-64
2022/03/11 04:24:27;;;;;;;0.77;0.77;;;0.50;92.20;;;;;;4442757;32;20073;-64
2022/03/11 04:26:52;;;;;;;1.95;1.30;;;0.50;92.40;;;;;;4440665;32;20458;-64
2022/03/11 04:29:18;;;;;;;0.40;0.40;;;0.40;92.50;;;;;;4441239;32;20074;-64
2022/03/11 04:31:44;;;;;;;0.80;0.80;;;0.40;92.60;;;;;;4444908;32;20133;-65
2022/03/11 04:34:09;;;;;;;0.82;0.82;;;0.60;92.70;;;;;;4429411;32;20133;-64
2022/03/11 04:36:38;;;;;;;0.60;0.60;;;0.50;92.20;;;;;;4441910;32;20081;-65
2022/03/11 04:39:04;;;;;;;2.53;1.05;;;0.40;92.30;;;;;;4441870;32;20435;-65
2022/03/11 04:41:30;;;;;;;1.17;1.00;;;0.70;92.00;;;;;;4443178;32;20073;-64
2022/03/11 04:43:55;;;;;;;0.50;0.50;;;0.60;91.80;;;;;;4439654;32;20098;-65
2022/03/11 04:46:21;;;;;;;1.27;1.10;;;0.60;92.40;;;;;;4438948;32;20068;-64
2022/03/11 04:48:47;;;;;;;1.65;1.48;;;0.60;91.90;;;;;;4443455;32;20081;-65
2022/03/11 04:51:14;;;;;;;0.98;0.93;;;0.50;92.00;;;;;;4441082;32;20070;-64
2022/03/11 04:53:39;;;;;;;3.72;1.90;;;0.50;92.00;;;;;;4440940;32;20073;-64
2022/03/11 04:56:05;;;;;;;0.55;0.55;;;0.40;92.10;;;;;;4443012;32;20773;-64
2022/03/11 04:58:31;;;;;;;1.40;1.27;;;0.30;92.20;;;;;;4427206;32;20069;-64
2022/03/11 05:00:56;;;;;;;0.70;0.70;;;0.30;92.40;;;;;;4441321;32;20416;-64
2022/03/11 05:03:21;;;;;;;0.73;0.73;;;0.40;92.20;;;;;;4440932;32;20388;-64
2022/03/11 05:05:47;;;;;;;0.50;0.50;;;0.40;92.10;;;;;;4442248;32;20114;-64
2022/03/11 05:08:12;;;;;;;1.75;1.02;;;0.30;92.20;;;;;;4440805;32;20085;-64
2022/03/11 05:10:38;;;;;;;7.78;1.02;;;0.30;92.10;;;;;;4443374;32;20069;-64
2022/03/11 05:13:03;;;;;;;3.97;1.62;;;0.40;92.20;;;;;;4441785;32;20445;-64
2022/03/11 05:15:29;;;;;;;1.27;1.17;;;0.30;92.00;;;;;;4438775;32;20328;-64
2022/03/11 05:17:55;;;;;;;0.60;0.60;;;0.30;92.20;;;;;;4442769;32;20069;-64
2022/03/11 05:20:21;;;;;;;0.88;0.88;;;0.30;92.20;;;;;;4442424;32;20121;-64
2022/03/11 05:22:47;;;;;;;2.53;1.80;;;0.40;92.00;;;;;;4432033;32;20116;-64
2022/03/11 05:25:13;;;;;;;4.97;3.17;;;0.40;91.70;;;;;;4441112;32;20090;-64
2022/03/11 05:27:39;;;;;;;0.57;0.57;;;0.30;92.10;;;;;;4426583;32;20532;-64
2022/03/11 05:30:06;;;;;;;1.25;1.00;;;0.30;92.20;;;;;;4441441;32;20061;-64
2022/03/11 05:32:32;;;;;;;1.65;1.33;;;0.20;92.10;;;;;;4443132;32;20513;-64
2022/03/11 05:34:57;;;;;;;0.77;0.77;;;0.30;92.20;;;;;;4440182;32;20080;-64
2022/03/11 05:37:23;;;;;;;0.75;0.73;;;0.20;92.40;;;;;;4441726;32;20131;-64
2022/03/11 05:39:48;;;;;;;0.40;0.40;;;0.20;92.10;;;;;;4442354;32;20085;-64
2022/03/11 05:42:14;;;;;;;1.25;1.10;;;0.10;92.20;;;;;;4439800;32;20338;-65
2022/03/11 05:44:39;;;;;;;0.68;0.68;;;0.20;92.50;;;;;;4439668;32;20065;-65
2022/03/11 05:47:05;;;;;;;0.95;0.68;;;0.10;92.20;;;;;;4442738;32;20411;-65
2022/03/11 05:49:30;;;;;;;2.33;1.65;;;0.10;92.30;;;;;;4439457;32;20154;-65
2022/03/11 05:51:56;;;;;;;1.30;1.20;;;0.20;92.20;;;;;;4428495;32;20135;-64
2022/03/11 05:54:21;;;;;;;0.47;0.47;;;0.30;92.00;;;;;;4425543;32;20073;-65
2022/03/11 05:56:53;;;;;;;3.83;1.83;;;0.30;91.90;;;;;;4440082;32;20064;-65
2022/03/11 05:59:19;;;;;;;1.42;0.57;;;0.10;92.20;;;;;;4426108;32;20565;-65
2022/03/11 06:01:44;;;;;;;1.67;1.35;;;0.10;92.40;;;;;;4431198;32;20081;-65
2022/03/11 06:04:11;;;;;;;1.17;1.10;;;0.10;92.30;;;;;;4434014;32;20750;-65
2022/03/11 06:06:37;;;;;;;1.27;1.20;;;0.20;92.30;;;;;;4435958;32;20069;-65
2022/03/11 06:09:03;;;;;;;0.75;0.75;;;0.20;92.10;;;;;;4442946;32;20126;-65
2022/03/11 06:11:28;;;;;;;1.42;1.15;;;0.30;92.20;;;;;;4437944;32;20061;-64
2022/03/11 06:13:54;;;;;;;0.60;0.60;;;0.20;92.10;;;;;;4439247;32;20049;-64
2022/03/11 06:16:20;;;;;;;4.62;1.85;;;0.30;92.00;;;;;;4438259;32;20069;-64
2022/03/11 06:18:45;;;;;;;0.50;0.50;;;0.40;92.00;;;;;;4407105;32;20107;-65
2022/03/11 06:21:11;;;;;;;0.93;0.93;;;0.40;91.90;;;;;;4439510;32;20415;-66
2022/03/11 06:23:37;;;;;;;4.47;1.70;;;0.30;92.00;;;;;;4427464;32;20088;-65
2022/03/11 06:26:04;;;;;;;0.82;0.82;;;0.30;91.90;;;;;;4428860;32;20839;-65
2022/03/11 06:28:31;;;;;;;1.87;1.58;;;0.40;91.90;;;;;;4427958;32;20123;-65
2022/03/11 06:30:56;;;;;;;0.80;0.80;;;0.50;91.70;;;;;;4419018;32;20327;-65
2022/03/11 06:33:22;;;;;;;0.93;0.93;;;0.50;91.40;;;;;;4415947;32;20576;-65
2022/03/11 06:35:50;;;;;;;0.60;0.60;;;0.50;91.60;;;;;;4423523;32;20761;-64
2022/03/11 06:38:16;;;;;;;0.95;0.95;;;0.60;91.70;;;;;;4425374;32;20251;-65
2022/03/11 06:40:44;;;;;;;1.52;1.42;;;0.60;91.20;;;;;;4416519;32;20096;-64
2022/03/11 06:43:12;;;;;;;0.70;0.70;;;0.60;91.30;;;;;;4430884;32;20641;-65
2022/03/11 06:45:38;;;;;;;1.25;1.15;;;0.50;91.30;;;;;;4428932;32;20102;-66
2022/03/11 06:48:04;;;;;;;0.52;0.52;;;0.60;91.30;;;;;;4426303;32;20093;-65
2022/03/11 06:50:29;;;;;;;0.90;0.90;;;0.70;91.20;;;;;;4414932;32;21083;-66
2022/03/11 06:52:55;;;;;;;1.08;0.95;;;0.80;91.10;;;;;;4413641;32;20443;-65
2022/03/11 06:55:20;;;;;;;1.23;1.20;;;0.80;90.90;;;;;;4412418;32;20655;-64
2022/03/11 06:57:46;;;;;;;2.80;2.05;;;0.80;90.80;;;;;;4412133;32;20640;-65
2022/03/11 07:00:13;;;;;;;0.57;0.57;;;0.70;90.80;;;;;;4403353;32;22326;-65
2022/03/11 07:02:39;;;;;;;0.73;0.73;;;0.70;90.90;;;;;;4402847;32;20085;-66
2022/03/11 07:05:06;;;;;;;0.70;0.70;;;0.70;90.70;;;;;;4403455;32;20101;-66
2022/03/11 07:07:33;;;;;;;1.23;1.12;;;0.80;90.50;;;;;;4413468;32;20557;-65
2022/03/11 07:10:00;;;;;;;1.23;1.12;;;0.80;90.40;;;;;;4412504;32;20790;-67
2022/03/11 07:12:28;;;;;;;4.90;2.15;;;0.90;90.30;;;;;;4416924;32;20135;-66
2022/03/11 07:14:53;;;;;;;0.98;0.90;;;1.00;90.60;;;;;;4411494;32;20959;-65
2022/03/11 07:17:19;;;;;;;2.78;1.20;;;0.90;90.40;;;;;;4412361;32;20727;-65
2022/03/11 07:19:44;;;;;;;2.10;1.05;;;1.00;90.30;;;;;;4416901;32;20080;-65
2022/03/11 07:22:10;;;;;;;0.52;0.52;;;1.10;90.30;;;;;;4413782;32;20106;-65
2022/03/11 07:24:35;;;;;;;8.18;1.40;;;1.20;89.90;;;;;;4409064;32;21201;-65
2022/03/11 07:27:01;;;;;;;0.70;0.70;;;1.10;90.00;;;;;;4416613;32;20179;-65
2022/03/11 07:29:26;;;;;;;1.10;1.02;;;1.10;90.10;;;;;;4412255;32;20230;-66
2022/03/11 07:31:52;;;;;;;1.10;1.05;;;1.10;89.70;;;;;;4396036;32;20076;-66
2022/03/11 07:34:17;;;;;;;1.65;1.55;;;1.20;90.20;;;;;;4410773;32;87534;-65
2022/03/11 07:36:43;;;;;;;1.02;0.98;;;1.30;89.70;;;;;;4405216;32;20362;-65
2022/03/11 07:39:10;;;;;;;0.88;0.88;;;1.30;89.40;;;;;;4401344;32;21073;-65
2022/03/11 07:41:36;;;;;;;0.90;0.90;;;1.40;90.10;;;;;;4403669;32;20080;-65
2022/03/11 07:44:03;;;;;;;5.85;2.80;;;1.60;88.60;;;;;;4401538;32;20085;-65
2022/03/11 07:46:29;;;;;;;2.58;2.22;;;1.70;87.90;;;;;;4402208;32;20655;-65
2022/03/11 07:48:55;;;;;;;0.95;0.93;;;1.80;88.50;;;;;;4402858;32;20143;-65
2022/03/11 07:51:21;;;;;;;1.25;1.15;;;1.80;86.40;;;;;;4397451;32;20109;-65
2022/03/11 07:53:47;;;;;;;35.75;2.53;;;2.00;86.10;;;;;;4393506;32;20077;-65
2022/03/11 07:56:14;;;;;;;1.50;1.40;;;2.00;85.70;;;;;;4395086;32;20247;-65
2022/03/11 07:58:41;;;;;;;1.77;1.20;;;2.10;86.10;;;;;;4394268;32;20802;-65
2022/03/11 08:01:08;;;;;;;4.78;1.58;;;2.20;85.50;;;;;;4399779;32;20106;-65
2022/03/11 08:03:34;;;;;;;0.93;0.93;;;2.20;84.40;;;;;;4397819;32;20589;-65
2022/03/11 08:06:00;;;;;;;0.90;0.75;;;2.20;84.20;;;;;;4400486;32;20098;-65
2022/03/11 08:08:26;;;;;;;1.12;1.00;;;2.30;83.40;;;;;;4405605;32;20093;-65
2022/03/11 08:10:54;;;;;;;0.70;0.70;;;2.40;82.50;;;;;;4405750;32;20494;-65
2022/03/11 08:13:20;;;;;;;0.70;0.70;;;2.40;82.90;;;;;;4409570;32;20154;-65
2022/03/11 08:15:45;;;;;;;0.73;0.73;;;2.50;82.50;;;;;;4408557;32;20125;-65
2022/03/11 08:18:11;;;;;;;1.75;1.50;;;2.60;82.30;;;;;;4400264;32;20517;-64
2022/03/11 08:20:36;;;;;;;0.40;0.40;;;2.70;81.40;;;;;;4405527;32;20080;-65
2022/03/11 08:23:02;;;;;;;5.28;2.45;;;2.70;80.90;;;;;;4407120;32;20383;-64
2022/03/11 08:25:28;;;;;;;0.80;0.80;;;2.70;80.20;;;;;;4397953;32;20432;-64
2022/03/11 08:27:55;;;;;;;0.55;0.55;;;2.50;80.30;;;;;;4403753;32;20100;-65
2022/03/11 08:30:21;;;;;;;2.37;1.25;;;2.60;80.50;;;;;;4402052;32;20081;-65
2022/03/11 08:32:48;;;;;;;5.55;2.17;;;2.80;80.10;;;;;;4403191;32;20062;-66
2022/03/11 08:35:14;;;;;;;3.33;1.17;;;3.00;79.40;;;;;;4398266;32;20230;-67
2022/03/11 08:37:40;;;;;;;1.30;1.20;;;3.10;79.40;;;;;;4420169;32;20112;-66
2022/03/11 08:40:07;;;;;;;0.43;0.43;;;3.20;80.00;;;;;;4427393;32;20544;-66
2022/03/11 08:42:34;;;;;;;0.70;0.70;;;3.40;78.90;;;;;;4425619;32;20097;-65
2022/03/11 08:45:00;;;;;;;2.65;1.37;;;3.50;78.40;;;;;;4400071;32;20093;-66
2022/03/11 08:47:26;;;;;;;1.50;1.40;;;3.50;76.80;;;;;;4411212;32;20445;-66
2022/03/11 08:49:52;;;;;;;0.98;0.93;;;3.40;77.00;;;;;;4408463;32;20209;-66
2022/03/11 08:52:18;;;;;;;2.15;1.65;;;3.50;76.90;;;;;;4408963;32;20061;-65
2022/03/11 08:54:44;;;;;;;0.62;0.62;;;3.50;77.60;;;;;;4417665;32;20085;-65
2022/03/11 08:57:10;;;;;;;1.10;1.00;;;3.70;77.00;;;;;;4410067;32;20494;-65
2022/03/11 08:59:35;;;;;;;1.20;1.08;;;3.90;77.00;;;;;;4418863;32;20089;-65
2022/03/11 09:02:02;;;;;;;1.25;1.20;;;3.90;76.00;;;;;;4421367;32;20537;-65
2022/03/11 09:04:28;;;;;;;15.88;1.35;;;3.70;75.50;;;;;;4410444;32;20113;-65
2022/03/11 09:06:53;;;;;;;0.75;0.75;;;3.90;76.20;;;;;;4407162;32;20057;-66
2022/03/11 09:09:19;;;;;;;0.80;0.80;;;3.90;75.40;;;;;;4407615;32;20088;-66
2022/03/11 09:11:44;;;;;;;1.00;0.95;;;4.10;75.60;;;;;;4408093;32;20113;-66
2022/03/11 09:14:11;;;;;;;1.45;1.35;;;4.20;74.30;;;;;;4411396;32;20085;-66
2022/03/11 09:16:37;;;;;;;1.12;0.75;;;4.20;74.50;;;;;;4409004;32;20852;-66
2022/03/11 09:19:03;;;;;;;1.60;1.10;;;4.20;73.90;;;;;;4406461;32;20137;-67
2022/03/11 09:21:28;;;;;;;2.25;1.87;;;4.20;74.40;;;;;;4410301;32;20635;-66
2022/03/11 09:23:54;;;;;;;2.70;1.58;;;4.40;74.20;;;;;;4401792;32;20544;-66
2022/03/11 09:26:19;;;;;;;1.08;1.02;;;4.80;75.10;;;;;;4419747;32;20088;-66
2022/03/11 09:28:45;;;;;;;5.95;1.27;;;4.90;73.00;;;;;;4407360;32;20085;-68
2022/03/11 09:31:11;;;;;;;0.57;0.57;;;4.90;72.40;;;;;;4412580;32;20061;-67
2022/03/11 09:33:37;;;;;;;15.50;1.48;;;4.90;71.90;;;;;;4412766;32;20708;-67
2022/03/11 09:36:04;;;;;;;1.55;1.12;;;5.00;71.20;;;;;;4409973;32;21356;-67
2022/03/11 09:38:29;;;;;;;2.80;1.65;;;5.00;72.20;;;;;;4413832;32;20076;-67
2022/03/11 09:40:56;;;;;;;0.80;0.80;;;5.20;71.30;;;;;;4410849;32;20105;-67
2022/03/11 09:43:22;;;;;;;2.15;1.67;;;5.40;71.30;;;;;;4408737;32;20179;-66
2022/03/11 09:45:48;;;;;;;1.23;0.95;;;5.50;70.30;;;;;;4399021;32;20357;-66
2022/03/11 09:48:16;;;;;;;9.75;1.12;;;5.60;70.90;;;;;;4413316;32;20674;-67
2022/03/11 09:50:41;;;;;;;1.30;0.73;;;6.00;71.20;;;;;;4414670;32;20085;-66
2022/03/11 09:53:07;;;;;;;0.62;0.62;;;6.00;69.40;;;;;;4416919;32;20110;-67
2022/03/11 09:55:32;;;;;;;2.75;1.92;;;6.10;69.50;;;;;;4417676;32;20888;-67
2022/03/11 09:57:58;;;;;;;1.40;1.00;;;6.10;68.30;;;;;;4415832;32;20093;-67
2022/03/11 10:00:23;;;;;;;3.00;1.95;;;6.00;68.90;;;;;;4415672;32;20094;-67
2022/03/11 10:02:49;;;;;;;1.35;1.00;;;6.00;69.80;;;;;;4415076;32;20163;-66
2022/03/11 10:05:16;;;;;;;0.90;0.90;;;6.20;68.70;;;;;;4417185;32;20459;-66
2022/03/11 10:07:41;;;;;;;1.85;1.50;;;6.50;67.70;;;;;;4415036;32;20706;-65
2022/03/11 10:10:17;;;;;;;5.53;1.60;;;6.20;67.00;;;;;;4415150;32;20144;-66
2022/03/11 10:12:45;;;;;;;1.30;1.20;;;6.20;67.90;;;;;;4411848;32;20200;-65
2022/03/11 10:15:13;;;;;;;0.70;0.70;;;6.20;67.20;;;;;;4401170;32;20106;-66
2022/03/11 10:17:44;;;;;;;1.30;1.20;;;6.30;67.10;;;;;;4387416;32;20429;-65
2022/03/11 10:20:12;;;;;;;0.90;0.90;;;6.60;68.80;;;;;;4402683;32;20728;-66
2022/03/11 10:22:40;;;;;;;10.20;1.30;;;7.10;66.70;;;;;;4400753;32;20513;-65
2022/03/11 10:25:08;;;;;;;2.05;1.50;;;7.20;64.60;;;;;;4393047;32;20565;-66
2022/03/11 10:27:58;;;;;;;7.32;1.80;;;7.20;64.40;;;;;;4407101;32;20117;-65
2022/03/11 10:30:26;;;;;;;3.17;1.03;;;7.30;65.40;;;;;;4397913;32;20124;-66
2022/03/11 10:32:56;;;;;;;1.23;1.12;;;7.40;62.70;;;;;;4408175;32;20077;-67
2022/03/11 10:35:38;;;;;;;4.03;1.58;;;7.30;63.10;;;;;;4408682;32;20197;-66
2022/03/11 10:38:09;;;;;;;4.18;1.50;;;7.40;63.30;;;;;;4411345;32;20624;-66
2022/03/11 10:40:40;;;;;;;1.12;1.12;;;7.50;64.30;;;;;;4409791;32;20081;-66
2022/03/11 10:43:16;;;;;;;4.00;1.15;;;7.50;61.20;;;;;;4416717;32;20317;-66
2022/03/11 10:46:06;;;;;;;1.98;1.10;;;7.40;63.10;;;;;;4417939;32;20132;-66
2022/03/11 10:48:49;;;;;;;0.90;0.90;;;7.50;63.20;;;;;;4417400;32;20160;-66
2022/03/11 10:51:33;;;;;;;16.98;2.12;;;7.40;62.80;;;;;;4415178;32;20591;-66
2022/03/11 10:54:00;;;;;;;2.75;1.87;;;7.70;62.60;;;;;;4416265;32;20106;-66
2022/03/11 10:56:29;;;;;;;1.12;0.95;;;7.90;60.50;;;;;;4409967;32;20081;-66
2022/03/11 10:58:57;;;;;;;1.95;0.82;;;8.10;59.60;;;;;;4418074;32;20480;-66
2022/03/11 11:01:40;;;;;;;1.75;1.05;;;8.10;59.00;;;;;;4411808;32;20692;-66
2022/03/11 11:04:13;;;;;;;1.08;0.93;;;8.00;58.70;;;;;;4412195;32;20112;-66
2022/03/11 11:06:39;;;;;;;1.73;1.10;;;7.90;58.30;;;;;;4412306;32;20066;-66
2022/03/11 11:09:07;;;;;;;5.45;1.33;;;8.00;57.50;;;;;;4415912;32;20073;-67
2022/03/11 11:11:33;;;;;;;2.95;1.55;;;8.10;57.50;;;;;;4412261;32;20085;-66
2022/03/11 11:13:59;;;;;;;2.85;0.62;;;8.00;56.20;;;;;;4415262;32;20110;-67
2022/03/11 11:16:28;;;;;;;0.62;0.50;;;8.10;56.40;;;;;;4398709;32;21676;-66
2022/03/11 11:18:59;;;;;;;0.70;0.70;;;8.20;56.60;;;;;;4415554;32;20069;-67
2022/03/11 11:21:26;;;;;;;1.08;1.08;;;8.70;56.80;;;;;;4412097;32;20085;-66
2022/03/11 11:23:55;;;;;;;1.10;1.00;;;8.50;54.20;;;;;;4413438;32;20282;-69
2022/03/11 11:26:23;;;;;;;0.88;0.80;;;8.40;54.90;;;;;;4415239;32;20097;-67
2022/03/11 11:28:53;;;;;;;1.33;1.10;;;8.50;54.30;;;;;;4416785;32;20077;-66
2022/03/11 11:31:20;;;;;;;1.37;0.98;;;8.70;54.40;;;;;;4410371;32;20086;-67
2022/03/11 11:33:47;;;;;;;2.20;1.62;;;8.90;54.10;;;;;;4406285;32;20490;-67
2022/03/11 11:36:13;;;;;;;1.60;1.50;;;9.00;54.00;;;;;;4403902;32;20101;-67
2022/03/11 11:38:42;;;;;;;1.20;0.95;;;9.30;53.30;;;;;;4407798;32;21555;-67
2022/03/11 11:41:25;;;;;;;1.85;1.20;;;9.90;53.10;;;;;;4412666;32;20474;-66
2022/03/11 11:43:59;;;;;;;3.58;0.90;;;10.30;53.00;;;;;;4413494;32;20078;-66
2022/03/11 11:46:26;;;;;;;0.62;0.62;;;10.20;51.70;;;;;;4408116;32;20097;-68
2022/03/11 11:48:54;;;;;;;0.82;0.82;;;10.40;51.40;;;;;;4405216;32;20096;-66
2022/03/11 11:51:22;;;;;;;1.37;1.10;;;10.60;51.00;;;;;;4407700;32;20065;-68
2022/03/11 11:53:57;;;;;;;2.78;1.95;;;10.70;50.70;;;;;;4411379;32;20096;-66
2022/03/11 11:56:35;;;;;;;2.08;1.52;;;10.80;50.60;;;;;;4406380;32;20097;-66
2022/03/11 11:59:04;;;;;;;0.68;0.68;;;11.10;50.30;;;;;;4402978;32;20543;-66
2022/03/11 12:01:49;;;;;;;1.80;1.08;;;11.20;49.80;;;;;;4408802;32;20702;-67
2022/03/11 12:04:25;;;;;;;1.12;0.90;;;11.00;49.20;;;;;;4420179;32;20431;-66
2022/03/11 12:07:00;;;;;;;1.60;1.02;;;11.00;50.40;;;;;;4414871;32;20881;-67
2022/03/11 12:09:45;;;;;;;0.80;0.80;;;11.30;49.60;;;;;;4413136;32;20097;-66
2022/03/11 12:12:30;;;;;;;0.77;0.77;;;11.30;48.50;;;;;;4414461;32;20106;-66
2022/03/11 12:15:01;;;;;;;8.88;0.95;;;11.70;48.40;;;;;;4416632;32;20105;-65
2022/03/11 12:17:48;;;;;;;0.47;0.47;;;11.50;48.00;;;;;;4409591;32;20208;-67
2022/03/11 12:20:25;;;;;;;0.85;0.77;;;12.00;47.80;;;;;;4408867;32;20077;-66
2022/03/11 12:22:52;;;;;;;0.70;0.70;;;12.60;47.60;;;;;;4418482;32;20645;-66
2022/03/11 12:25:22;;;;;;;0.70;0.70;;;12.60;45.90;;;;;;4420065;32;20132;-66
2022/03/11 12:27:58;;;;;;;5.85;0.82;;;12.60;45.50;;;;;;4413899;32;20093;-66
2022/03/11 12:30:24;;;;;;;0.47;0.47;;;12.70;45.50;;;;;;4408323;32;20542;-66
2022/03/11 12:32:51;;;;;;;0.70;0.70;;;12.40;45.10;;;;;;4413697;32;20776;-66
2022/03/11 12:35:18;;;;;;;1.48;0.88;;;13.00;44.90;;;;;;4410576;32;20093;-66
2022/03/11 12:37:44;;;;;;;2.05;1.17;;;13.10;44.30;;;;;;4419621;32;20101;-67
2022/03/11 12:40:10;;;;;;;0.60;0.60;;;13.60;43.30;;;;;;4409126;32;20081;-65
2022/03/11 12:42:38;;;;;;;1.08;0.75;;;13.00;43.50;;;;;;4399404;32;20104;-67
2022/03/11 12:45:04;;;;;;;1.15;0.68;;;13.10;44.10;;;;;;4398385;32;20104;-64
2022/03/11 12:47:38;;;;;;;4.93;0.80;;;13.50;44.70;;;;;;4402937;32;20554;-67
2022/03/11 12:50:06;;;;;;;4.10;0.88;;;14.10;43.20;;;;;;4407241;32;20694;-67
2022/03/11 12:52:40;;;;;;;0.65;0.65;;;13.90;43.20;;;;;;4407589;32;21735;-67
2022/03/11 12:55:30;;;;;;;1.00;0.77;;;14.20;42.90;;;;;;4401337;32;20170;-67